Time;durP1;ratioP1;P1;durP2;ratioP2;P2;SDS_P1;SDS_P2;PMS_P1;PMS_P2;Temp;Humidity;BMP_temperature;BMP_pressure;BME280_temperature;BME280_humidity;BME280_pressure;Samples;Min_cycle;Max_cycle;Signal;HPM_P1;HPM_P2
2024/04/04 00:00:14;;;;;;;13.67;10.50;;;;;;;;;;7346604;19;20320;-40
2024/04/04 00:02:40;;;;;;;15.73;10.70;;;;;;;;;;7323839;19;20754;-42
2024/04/04 00:05:05;;;;;;;16.90;10.93;;;;;;;;;;7346371;19;20316;-40
2024/04/04 00:07:31;;;;;;;16.88;10.80;;;;;;;;;;7345395;19;20357;-41
2024/04/04 00:09:57;;;;;;;15.43;10.90;;;;;;;;;;7324754;19;20378;-40
2024/04/04 00:12:24;;;;;;;15.57;10.52;;;;;;;;;;7344786;19;20320;-40
2024/04/04 00:14:49;;;;;;;19.98;11.60;;;;;;;;;;7325020;19;20336;-43
2024/04/04 00:17:15;;;;;;;18.90;11.60;;;;;;;;;;7345819;19;21026;-43
2024/04/04 00:19:40;;;;;;;15.93;11.00;;;;;;;;;;7323055;19;20333;-39
2024/04/04 00:22:05;;;;;;;17.57;10.63;;;;;;;;;;7344467;19;20345;-40
2024/04/04 00:24:31;;;;;;;18.40;11.80;;;;;;;;;;7342684;19;20328;-36
2024/04/04 00:26:56;;;;;;;17.10;10.33;;;;;;;;;;7330784;19;20300;-40
2024/04/04 00:29:22;;;;;;;19.00;10.30;;;;;;;;;;7345983;19;20309;-41
2024/04/04 00:31:47;;;;;;;18.08;11.48;;;;;;;;;;7324266;19;20328;-43
2024/04/04 00:34:13;;;;;;;17.20;10.00;;;;;;;;;;7343706;19;20384;-40
2024/04/04 00:36:38;;;;;;;17.00;9.98;;;;;;;;;;7323557;19;20327;-40
2024/04/04 00:39:04;;;;;;;16.13;9.83;;;;;;;;;;7345945;19;20329;-41
2024/04/04 00:41:29;;;;;;;20.88;10.95;;;;;;;;;;7345165;19;20956;-40
2024/04/04 00:43:55;;;;;;;15.67;9.97;;;;;;;;;;7323328;19;20757;-41
2024/04/04 00:46:20;;;;;;;17.65;10.32;;;;;;;;;;7345957;19;20333;-39
2024/04/04 00:48:46;;;;;;;15.60;10.07;;;;;;;;;;7321415;19;20364;-38
2024/04/04 00:51:12;;;;;;;19.30;11.20;;;;;;;;;;7345524;19;20333;-42
2024/04/04 00:53:38;;;;;;;19.37;12.00;;;;;;;;;;7328406;19;20883;-44
2024/04/04 00:56:03;;;;;;;16.27;11.17;;;;;;;;;;7352342;19;20887;-42
2024/04/04 00:58:29;;;;;;;19.90;11.57;;;;;;;;;;7353050;19;20746;-40
2024/04/04 01:00:54;;;;;;;19.75;11.00;;;;;;;;;;7331171;19;20828;-42
2024/04/04 01:03:20;;;;;;;20.90;11.77;;;;;;;;;;7350992;19;20312;-43
2024/04/04 01:05:45;;;;;;;21.20;11.50;;;;;;;;;;7329482;19;20342;-39
2024/04/04 01:08:12;;;;;;;20.63;10.98;;;;;;;;;;7350901;19;20349;-41
2024/04/04 01:10:38;;;;;;;20.02;11.18;;;;;;;;;;7329959;19;20328;-40
2024/04/04 01:13:04;;;;;;;20.87;11.50;;;;;;;;;;7350422;19;20374;-41
2024/04/04 01:15:29;;;;;;;23.07;12.43;;;;;;;;;;7352286;19;20321;-40
2024/04/04 01:17:58;;;;;;;18.10;12.02;;;;;;;;;;7330801;19;20312;-40
2024/04/04 01:20:24;;;;;;;19.48;12.15;;;;;;;;;;7350230;19;20320;-40
2024/04/04 01:22:49;;;;;;;21.40;12.90;;;;;;;;;;7327294;19;20345;-44
2024/04/04 01:25:16;;;;;;;19.27;12.20;;;;;;;;;;7350777;19;20364;-43
2024/04/04 01:27:41;;;;;;;25.90;14.38;;;;;;;;;;7328629;19;20320;-46
2024/04/04 01:30:07;;;;;;;20.10;12.43;;;;;;;;;;7349964;19;20404;-41
2024/04/04 01:32:32;;;;;;;24.43;11.90;;;;;;;;;;7336767;19;20349;-39
2024/04/04 01:34:57;;;;;;;23.27;13.80;;;;;;;;;;7343431;19;20377;-42
2024/04/04 01:37:23;;;;;;;24.80;14.30;;;;;;;;;;7349176;19;20345;-40
2024/04/04 01:39:48;;;;;;;24.97;14.90;;;;;;;;;;7329523;19;20849;-44
2024/04/04 01:42:14;;;;;;;26.40;13.67;;;;;;;;;;7349701;19;20338;-40
2024/04/04 01:44:39;;;;;;;25.37;14.77;;;;;;;;;;7329900;19;20312;-39
2024/04/04 01:47:04;;;;;;;27.52;13.73;;;;;;;;;;7351775;19;20324;-42
2024/04/04 01:49:30;;;;;;;25.80;14.13;;;;;;;;;;7349801;19;21007;-40
2024/04/04 01:51:55;;;;;;;24.65;14.38;;;;;;;;;;7329023;19;21132;-40
2024/04/04 01:54:20;;;;;;;25.63;14.43;;;;;;;;;;7349490;19;20329;-39
2024/04/04 01:56:46;;;;;;;22.87;14.50;;;;;;;;;;7328618;19;20356;-39
2024/04/04 01:59:11;;;;;;;27.53;15.23;;;;;;;;;;7350314;19;20357;-40
2024/04/04 02:01:37;;;;;;;22.57;14.57;;;;;;;;;;7329014;19;20743;-42
2024/04/04 02:04:03;;;;;;;23.80;13.90;;;;;;;;;;7347861;19;20321;-44
2024/04/04 02:06:28;;;;;;;24.85;14.80;;;;;;;;;;7351558;19;20328;-43
2024/04/04 02:08:53;;;;;;;26.73;14.53;;;;;;;;;;7330853;19;20300;-40
2024/04/04 02:11:19;;;;;;;24.30;14.07;;;;;;;;;;7350505;19;20405;-41
2024/04/04 02:13:46;;;;;;;27.67;14.20;;;;;;;;;;7326183;19;20710;-41
2024/04/04 02:16:12;;;;;;;25.95;14.70;;;;;;;;;;7350348;19;20864;-41
2024/04/04 02:18:37;;;;;;;23.80;15.05;;;;;;;;;;7328037;19;20397;-41
2024/04/04 02:21:04;;;;;;;23.40;14.50;;;;;;;;;;7349350;19;20647;-43
2024/04/04 02:23:30;;;;;;;25.80;13.80;;;;;;;;;;7348347;19;20325;-43
2024/04/04 02:25:56;;;;;;;22.17;13.20;;;;;;;;;;7328403;19;20300;-40
2024/04/04 02:28:21;;;;;;;25.73;13.93;;;;;;;;;;7349741;19;20861;-41
2024/04/04 02:30:47;;;;;;;23.93;13.70;;;;;;;;;;7328267;19;20328;-42
2024/04/04 02:33:12;;;;;;;24.73;14.35;;;;;;;;;;7347067;19;20797;-40
2024/04/04 02:35:37;;;;;;;22.53;12.77;;;;;;;;;;7327394;19;20363;-43
2024/04/04 02:38:03;;;;;;;23.33;12.97;;;;;;;;;;7350375;19;20328;-40
2024/04/04 02:40:28;;;;;;;23.60;12.40;;;;;;;;;;7349690;19;20328;-39
2024/04/04 02:42:54;;;;;;;21.50;12.47;;;;;;;;;;7327071;19;20301;-40
2024/04/04 02:45:22;;;;;;;23.83;12.10;;;;;;;;;;7347745;19;20685;-41
2024/04/04 02:47:47;;;;;;;21.40;12.20;;;;;;;;;;7325483;19;20335;-41
2024/04/04 02:50:13;;;;;;;22.85;11.85;;;;;;;;;;7348181;19;20899;-40
2024/04/04 02:52:38;;;;;;;21.63;11.20;;;;;;;;;;7325620;19;20364;-41
2024/04/04 02:55:04;;;;;;;21.43;10.80;;;;;;;;;;7348459;19;20329;-40
2024/04/04 02:57:29;;;;;;;18.05;10.00;;;;;;;;;;7348584;19;20337;-42
2024/04/04 02:59:55;;;;;;;18.00;10.40;;;;;;;;;;7327110;19;20304;-40
2024/04/04 03:02:20;;;;;;;22.60;10.15;;;;;;;;;;7346742;19;20317;-40
2024/04/04 03:04:46;;;;;;;23.43;10.70;;;;;;;;;;7326541;19;20327;-41
2024/04/04 03:07:11;;;;;;;18.90;8.93;;;;;;;;;;7347950;19;20328;-45
2024/04/04 03:09:37;;;;;;;18.02;8.93;;;;;;;;;;7326704;19;20336;-40
2024/04/04 03:12:02;;;;;;;13.77;7.90;;;;;;;;;;7348412;19;20356;-41
2024/04/04 03:14:29;;;;;;;15.83;8.63;;;;;;;;;;7345672;19;20924;-44
2024/04/04 03:16:54;;;;;;;17.02;8.93;;;;;;;;;;7320825;19;20313;-41
2024/04/04 03:19:20;;;;;;;16.07;8.20;;;;;;;;;;7344390;19;20340;-41
2024/04/04 03:21:45;;;;;;;21.33;8.17;;;;;;;;;;7322941;19;20407;-41
2024/04/04 03:24:10;;;;;;;18.23;7.60;;;;;;;;;;7345182;19;20355;-40
2024/04/04 03:26:36;;;;;;;16.00;7.90;;;;;;;;;;7323499;19;20348;-44
2024/04/04 03:29:01;;;;;;;14.17;7.80;;;;;;;;;;7345662;19;20750;-41
2024/04/04 03:31:27;;;;;;;14.23;7.70;;;;;;;;;;7345766;19;20320;-45
2024/04/04 03:33:53;;;;;;;16.53;8.17;;;;;;;;;;7323028;19;20307;-41
2024/04/04 03:36:18;;;;;;;19.85;8.45;;;;;;;;;;7345224;19;20320;-42
2024/04/04 03:38:44;;;;;;;14.85;6.80;;;;;;;;;;7322161;19;20345;-41
2024/04/04 03:41:09;;;;;;;18.27;7.35;;;;;;;;;;7344665;19;20333;-41
2024/04/04 03:43:35;;;;;;;18.93;6.97;;;;;;;;;;7322958;19;20332;-41
2024/04/04 03:46:04;;;;;;;16.30;7.27;;;;;;;;;;7345637;19;20296;-40
2024/04/04 03:48:29;;;;;;;17.15;7.05;;;;;;;;;;7342511;19;20328;-44
2024/04/04 03:50:54;;;;;;;17.20;7.07;;;;;;;;;;7323013;19;20300;-41
2024/04/04 03:53:20;;;;;;;14.50;6.73;;;;;;;;;;7343569;19;20329;-41
2024/04/04 03:55:45;;;;;;;14.73;7.38;;;;;;;;;;7322798;19;20765;-40
2024/04/04 03:58:11;;;;;;;14.63;7.22;;;;;;;;;;7344012;19;20324;-42
2024/04/04 04:00:37;;;;;;;15.10;6.13;;;;;;;;;;7322440;19;20320;-43
2024/04/04 04:03:02;;;;;;;14.10;7.00;;;;;;;;;;7343886;19;20315;-40
2024/04/04 04:05:27;;;;;;;13.48;6.60;;;;;;;;;;7344516;19;20412;-41
2024/04/04 04:07:53;;;;;;;13.73;6.20;;;;;;;;;;7322072;19;20296;-43
2024/04/04 04:10:18;;;;;;;16.30;6.60;;;;;;;;;;7344376;19;20345;-41
2024/04/04 04:12:44;;;;;;;10.53;6.20;;;;;;;;;;7321421;19;20325;-41
2024/04/04 04:15:10;;;;;;;15.47;6.70;;;;;;;;;;7344120;19;20321;-41
2024/04/04 04:17:35;;;;;;;18.20;7.70;;;;;;;;;;7320363;19;20343;-40
2024/04/04 04:20:11;;;;;;;20.53;7.80;;;;;;;;;;7344889;19;20409;-39
2024/04/04 04:22:36;;;;;;;17.77;7.13;;;;;;;;;;7321304;19;20674;-41
2024/04/04 04:25:02;;;;;;;14.17;6.10;;;;;;;;;;7344955;19;20368;-41
2024/04/04 04:27:28;;;;;;;12.30;5.57;;;;;;;;;;7347046;19;20463;-41
2024/04/04 04:29:53;;;;;;;12.97;5.87;;;;;;;;;;7329649;19;20324;-42
2024/04/04 04:32:19;;;;;;;15.27;6.57;;;;;;;;;;7349767;19;20328;-41
2024/04/04 04:34:44;;;;;;;16.73;5.83;;;;;;;;;;7327962;19;20753;-40
2024/04/04 04:37:10;;;;;;;14.80;5.90;;;;;;;;;;7349884;19;20396;-42
2024/04/04 04:39:35;;;;;;;13.40;5.85;;;;;;;;;;7329009;19;21224;-40
2024/04/04 04:42:01;;;;;;;11.53;5.30;;;;;;;;;;7350285;19;20374;-41
2024/04/04 04:44:26;;;;;;;11.93;5.60;;;;;;;;;;7350651;19;20332;-41
2024/04/04 04:46:52;;;;;;;10.00;5.40;;;;;;;;;;7328551;19;20613;-41
2024/04/04 04:49:20;;;;;;;16.95;6.43;;;;;;;;;;7347722;19;20320;-41
2024/04/04 04:51:45;;;;;;;12.27;5.72;;;;;;;;;;7328138;19;20328;-39
2024/04/04 04:54:11;;;;;;;10.15;5.40;;;;;;;;;;7347418;19;20321;-40
2024/04/04 04:56:36;;;;;;;12.90;6.40;;;;;;;;;;7327899;19;21476;-42
2024/04/04 04:59:02;;;;;;;13.43;6.00;;;;;;;;;;7350527;19;20861;-42
2024/04/04 05:01:27;;;;;;;18.40;6.40;;;;;;;;;;7349438;19;20356;-41
2024/04/04 05:03:52;;;;;;;15.67;5.70;;;;;;;;;;7328356;19;20394;-41
2024/04/04 05:06:18;;;;;;;13.68;5.88;;;;;;;;;;7349842;19;20344;-42
2024/04/04 05:08:43;;;;;;;16.23;5.80;;;;;;;;;;7327083;19;20327;-41
2024/04/04 05:11:09;;;;;;;13.13;6.07;;;;;;;;;;7349424;19;20349;-43
2024/04/04 05:13:34;;;;;;;13.43;5.43;;;;;;;;;;7326032;19;20348;-42
2024/04/04 05:15:59;;;;;;;15.20;5.33;;;;;;;;;;7349945;19;20297;-42
2024/04/04 05:18:26;;;;;;;12.15;5.53;;;;;;;;;;7347555;19;20696;-40
2024/04/04 05:21:04;;;;;;;13.13;4.82;;;;;;;;;;7327243;19;20985;-41
2024/04/04 05:23:30;;;;;;;15.13;6.00;;;;;;;;;;7348968;19;20320;-41
2024/04/04 05:25:55;;;;;;;12.70;5.10;;;;;;;;;;7328030;19;20702;-43
2024/04/04 05:28:26;;;;;;;10.57;4.60;;;;;;;;;;7343313;19;20400;-42
2024/04/04 05:30:52;;;;;;;16.40;5.60;;;;;;;;;;7327248;19;20877;-41
2024/04/04 05:33:17;;;;;;;14.15;5.72;;;;;;;;;;7347072;19;20329;-41
2024/04/04 05:35:43;;;;;;;13.77;4.70;;;;;;;;;;7326786;19;20341;-40
2024/04/04 05:38:09;;;;;;;9.90;4.68;;;;;;;;;;7348205;19;20320;-41
2024/04/04 05:40:37;;;;;;;14.60;4.90;;;;;;;;;;7323188;19;20324;-41
2024/04/04 05:43:02;;;;;;;13.50;5.47;;;;;;;;;;7345320;19;20744;-41
2024/04/04 05:45:28;;;;;;;9.63;4.10;;;;;;;;;;7346574;19;20341;-44
2024/04/04 05:47:53;;;;;;;11.20;4.40;;;;;;;;;;7324741;19;20316;-42
2024/04/04 05:50:19;;;;;;;8.43;4.30;;;;;;;;;;7348185;19;20694;-42
2024/04/04 05:52:44;;;;;;;15.07;4.85;;;;;;;;;;7325778;19;20747;-42
2024/04/04 05:55:11;;;;;;;9.10;3.73;;;;;;;;;;7347297;19;20362;-43
2024/04/04 05:57:36;;;;;;;9.68;3.42;;;;;;;;;;7322879;19;20891;-41
2024/04/04 06:00:01;;;;;;;9.40;4.00;;;;;;;;;;7346802;19;20320;-41
2024/04/04 06:02:27;;;;;;;9.17;3.40;;;;;;;;;;7346909;19;20326;-40
2024/04/04 06:04:52;;;;;;;7.80;3.20;;;;;;;;;;7322608;19;20294;-42
2024/04/04 06:07:20;;;;;;;11.53;3.40;;;;;;;;;;7347367;19;20340;-42
2024/04/04 06:09:45;;;;;;;9.27;3.20;;;;;;;;;;7325185;19;20324;-39
2024/04/04 06:12:11;;;;;;;7.85;3.17;;;;;;;;;;7347005;19;20336;-41
2024/04/04 06:14:38;;;;;;;7.70;2.77;;;;;;;;;;7324871;19;20328;-41
2024/04/04 06:17:04;;;;;;;8.30;3.30;;;;;;;;;;7347646;19;20323;-42
2024/04/04 06:19:29;;;;;;;11.20;2.80;;;;;;;;;;7347522;19;20408;-40
2024/04/04 06:21:56;;;;;;;9.80;3.90;;;;;;;;;;7323122;19;20336;-41
2024/04/04 06:24:22;;;;;;;15.32;3.45;;;;;;;;;;7345882;19;20317;-41
2024/04/04 06:26:49;;;;;;;10.73;4.20;;;;;;;;;;7324000;19;20321;-41
2024/04/04 06:29:15;;;;;;;11.23;3.33;;;;;;;;;;7346527;19;20324;-41
2024/04/04 06:31:41;;;;;;;10.45;4.43;;;;;;;;;;7325266;19;20328;-40
2024/04/04 06:34:06;;;;;;;10.50;4.00;;;;;;;;;;7346525;19;20325;-41
2024/04/04 06:36:31;;;;;;;9.67;3.00;;;;;;;;;;7347424;19;20327;-40
2024/04/04 06:39:02;;;;;;;16.53;6.07;;;;;;;;;;7325952;19;20297;-42
2024/04/04 06:41:27;;;;;;;113.72;41.28;;;;;;;;;;7346055;19;20365;-41
2024/04/04 06:43:52;;;;;;;37.10;13.53;;;;;;;;;;7321111;19;20965;-41
2024/04/04 06:46:18;;;;;;;15.82;5.85;;;;;;;;;;7346478;19;20328;-41
2024/04/04 06:48:43;;;;;;;31.40;12.97;;;;;;;;;;7322595;19;20872;-43
2024/04/04 06:51:09;;;;;;;15.38;5.30;;;;;;;;;;7346845;19;20320;-42
2024/04/04 06:53:34;;;;;;;45.23;19.00;;;;;;;;;;7322866;19;20363;-41
2024/04/04 06:55:59;;;;;;;13.20;4.90;;;;;;;;;;7346387;19;20357;-44
2024/04/04 06:58:25;;;;;;;32.60;10.98;;;;;;;;;;7345476;19;20312;-44
2024/04/04 07:00:56;;;;;;;15.70;4.67;;;;;;;;;;7325237;19;20321;-42
2024/04/04 07:03:22;;;;;;;28.88;9.50;;;;;;;;;;7343190;19;20325;-42
2024/04/04 07:05:47;;;;;;;14.83;6.10;;;;;;;;;;7323867;19;20864;-43
2024/04/04 07:08:13;;;;;;;10.90;3.67;;;;;;;;;;7344001;19;20432;-43
2024/04/04 07:10:39;;;;;;;26.10;9.97;;;;;;;;;;7323642;19;20884;-41
2024/04/04 07:13:04;;;;;;;19.83;6.65;;;;;;;;;;7345367;19;20293;-42
2024/04/04 07:15:29;;;;;;;26.57;9.67;;;;;;;;;;7346444;19;20328;-42
2024/04/04 07:17:57;;;;;;;29.23;11.50;;;;;;;;;;7322653;19;20848;-44
2024/04/04 07:20:22;;;;;;;8.90;3.80;;;;;;;;;;7345445;19;20321;-42
2024/04/04 07:22:48;;;;;;;26.37;10.53;;;;;;;;;;7323003;19;20940;-42
2024/04/04 07:25:15;;;;;;;13.63;4.93;;;;;;;;;;7346615;19;20416;-42
2024/04/04 07:27:41;;;;;;;11.38;3.55;;;;;;;;;;7323371;19;20336;-45
2024/04/04 07:30:07;;;;;;;23.48;6.70;;;;;;;;;;7346582;19;20364;-45
2024/04/04 07:32:33;;;;;;;12.43;2.97;;;;;;;;;;7335097;19;20321;-39
2024/04/04 07:35:01;;;;;;;8.97;3.80;;;;;;;;;;7340655;19;20308;-43
2024/04/04 07:37:29;;;;;;;13.88;4.68;;;;;;;;;;7345085;19;20341;-44
2024/04/04 07:39:56;;;;;;;20.20;6.80;;;;;;;;;;7324294;19;20308;-44
2024/04/04 07:42:22;;;;;;;15.45;5.00;;;;;;;;;;7344394;19;20345;-43
2024/04/04 07:44:48;;;;;;;6.38;1.85;;;;;;;;;;7321508;19;20325;-43
2024/04/04 07:47:14;;;;;;;13.13;5.00;;;;;;;;;;7344604;19;20352;-42
2024/04/04 07:49:39;;;;;;;7.10;2.10;;;;;;;;;;7321229;19;20409;-43
2024/04/04 07:52:05;;;;;;;13.87;3.83;;;;;;;;;;7345107;19;20297;-45
2024/04/04 07:54:31;;;;;;;10.13;2.63;;;;;;;;;;7344308;19;21200;-41
2024/04/04 07:56:56;;;;;;;9.52;3.42;;;;;;;;;;7323178;19;20297;-42
2024/04/04 07:59:21;;;;;;;7.13;1.80;;;;;;;;;;7344895;19;20325;-43
2024/04/04 08:01:47;;;;;;;14.50;5.10;;;;;;;;;;7320318;19;20917;-43
2024/04/04 08:04:12;;;;;;;12.57;3.53;;;;;;;;;;7340685;19;20324;-43
2024/04/04 08:06:38;;;;;;;6.20;1.88;;;;;;;;;;7322573;19;20333;-44
2024/04/04 08:09:06;;;;;;;6.10;1.70;;;;;;;;;;7344644;19;20299;-45
2024/04/04 08:11:31;;;;;;;6.90;2.20;;;;;;;;;;7344449;19;20683;-42
2024/04/04 08:13:57;;;;;;;14.37;4.30;;;;;;;;;;7323400;19;20327;-45
2024/04/04 08:16:23;;;;;;;10.50;2.53;;;;;;;;;;7344541;19;20375;-43
2024/04/04 08:18:48;;;;;;;7.18;2.03;;;;;;;;;;7320894;19;20405;-45
2024/04/04 08:21:14;;;;;;;6.80;1.70;;;;;;;;;;7344447;19;20897;-45
2024/04/04 08:23:40;;;;;;;11.20;3.33;;;;;;;;;;7321429;19;20671;-43
2024/04/04 08:26:05;;;;;;;7.80;1.97;;;;;;;;;;7343366;19;21851;-41
2024/04/04 08:28:31;;;;;;;8.40;2.20;;;;;;;;;;7343181;19;20328;-41
2024/04/04 08:30:57;;;;;;;8.13;2.50;;;;;;;;;;7322053;19;20301;-43
2024/04/04 08:33:24;;;;;;;8.95;3.47;;;;;;;;;;7341997;19;20324;-42
2024/04/04 08:35:49;;;;;;;10.32;2.60;;;;;;;;;;7321561;19;20923;-45
2024/04/04 08:38:14;;;;;;;8.37;2.30;;;;;;;;;;7342066;19;20400;-42
2024/04/04 08:40:40;;;;;;;12.25;2.80;;;;;;;;;;7322003;19;20362;-44
2024/04/04 08:43:06;;;;;;;10.30;2.10;;;;;;;;;;7343256;19;20340;-44
2024/04/04 08:45:34;;;;;;;6.13;2.10;;;;;;;;;;7339409;19;20324;-44
2024/04/04 08:48:03;;;;;;;9.03;1.80;;;;;;;;;;7320188;19;20288;-44
2024/04/04 08:50:29;;;;;;;6.35;2.10;;;;;;;;;;7343769;19;20324;-47
2024/04/04 08:52:54;;;;;;;12.05;2.70;;;;;;;;;;7321620;19;20304;-45
2024/04/04 08:55:20;;;;;;;7.70;2.60;;;;;;;;;;7342768;19;20321;-42
2024/04/04 08:57:45;;;;;;;8.37;2.10;;;;;;;;;;7320324;19;20344;-42
2024/04/04 09:00:13;;;;;;;9.80;2.40;;;;;;;;;;7343786;19;20408;-42
2024/04/04 09:02:40;;;;;;;10.60;2.50;;;;;;;;;;7320032;19;20353;-42
2024/04/04 09:05:09;;;;;;;11.80;3.00;;;;;;;;;;7343792;19;20313;-43
2024/04/04 09:07:35;;;;;;;19.65;7.70;;;;;;;;;;7319930;19;20333;-45
2024/04/04 09:10:00;;;;;;;11.90;3.10;;;;;;;;;;7343801;19;20293;-41
2024/04/04 09:12:25;;;;;;;26.42;10.52;;;;;;;;;;7342802;19;20677;-43
2024/04/04 09:15:00;;;;;;;9.87;3.50;;;;;;;;;;7327736;19;20327;-42
2024/04/04 09:17:26;;;;;;;10.75;3.25;;;;;;;;;;7344064;19;20347;-42
2024/04/04 09:19:55;;;;;;;13.00;3.43;;;;;;;;;;7328026;19;20294;-45
2024/04/04 09:22:21;;;;;;;9.60;2.40;;;;;;;;;;7348810;19;20357;-45
2024/04/04 09:24:46;;;;;;;10.20;2.85;;;;;;;;;;7327385;19;20706;-44
2024/04/04 09:27:17;;;;;;;10.45;3.00;;;;;;;;;;7348139;19;20347;-45
2024/04/04 09:29:43;;;;;;;11.95;3.20;;;;;;;;;;7327177;19;20848;-46
2024/04/04 09:32:09;;;;;;;7.15;2.63;;;;;;;;;;7345139;19;20320;-45
2024/04/04 09:34:35;;;;;;;11.93;3.03;;;;;;;;;;7325553;19;20934;-43
2024/04/04 09:37:01;;;;;;;10.30;2.70;;;;;;;;;;7348653;19;20333;-44
2024/04/04 09:39:28;;;;;;;9.90;2.97;;;;;;;;;;7349229;19;20323;-42
2024/04/04 09:41:56;;;;;;;10.53;3.03;;;;;;;;;;7326751;19;20282;-45
2024/04/04 09:44:21;;;;;;;7.65;3.33;;;;;;;;;;7346393;19;20341;-44
2024/04/04 09:46:47;;;;;;;6.20;3.10;;;;;;;;;;7326378;19;20420;-42
2024/04/04 09:49:13;;;;;;;10.90;3.13;;;;;;;;;;7347604;19;20321;-43
2024/04/04 09:51:40;;;;;;;8.32;3.08;;;;;;;;;;7326591;19;20671;-44
2024/04/04 09:54:05;;;;;;;11.93;3.03;;;;;;;;;;7346783;19;20293;-41
2024/04/04 09:56:32;;;;;;;7.25;2.60;;;;;;;;;;7348278;19;20694;-43
2024/04/04 09:58:58;;;;;;;9.00;2.70;;;;;;;;;;7327519;19;20300;-41
2024/04/04 10:01:24;;;;;;;9.95;2.90;;;;;;;;;;7348030;19;20935;-45
2024/04/04 10:03:52;;;;;;;10.35;4.22;;;;;;;;;;7326361;19;20324;-45
2024/04/04 10:06:32;;;;;;;10.73;3.38;;;;;;;;;;7347875;19;20313;-43
2024/04/04 10:08:58;;;;;;;12.25;4.00;;;;;;;;;;7326863;19;20297;-42
2024/04/04 10:11:27;;;;;;;10.77;3.00;;;;;;;;;;7347526;19;20388;-43
2024/04/04 10:13:53;;;;;;;7.88;2.88;;;;;;;;;;7325534;19;20294;-43
2024/04/04 10:16:27;;;;;;;7.20;3.20;;;;;;;;;;7347220;19;20893;-45
2024/04/04 10:18:53;;;;;;;8.27;3.17;;;;;;;;;;7325600;19;20289;-44
2024/04/04 10:21:24;;;;;;;11.50;3.08;;;;;;;;;;7347187;19;20888;-44
2024/04/04 10:23:53;;;;;;;7.80;3.00;;;;;;;;;;7323089;19;20325;-43
2024/04/04 10:26:18;;;;;;;7.85;3.30;;;;;;;;;;7346404;19;20335;-42
2024/04/04 10:28:45;;;;;;;12.20;3.77;;;;;;;;;;7324843;19;20329;-42
2024/04/04 10:31:10;;;;;;;11.52;3.75;;;;;;;;;;7345308;19;20356;-43
2024/04/04 10:33:35;;;;;;;6.67;3.20;;;;;;;;;;7322457;19;20337;-42
2024/04/04 10:36:03;;;;;;;8.63;2.73;;;;;;;;;;7347336;19;20308;-41
2024/04/04 10:38:28;;;;;;;8.98;2.92;;;;;;;;;;7345824;19;20316;-46
2024/04/04 10:40:57;;;;;;;9.57;3.10;;;;;;;;;;7325071;19;20686;-42
2024/04/04 10:43:22;;;;;;;8.52;3.03;;;;;;;;;;7344646;19;20699;-44
2024/04/04 10:45:49;;;;;;;10.60;3.50;;;;;;;;;;7323768;19;20325;-43
2024/04/04 10:48:14;;;;;;;8.18;3.30;;;;;;;;;;7345111;19;20698;-41
2024/04/04 10:50:40;;;;;;;8.87;3.20;;;;;;;;;;7324109;19;20321;-41
2024/04/04 10:53:06;;;;;;;8.57;3.50;;;;;;;;;;7346264;19;21017;-46
2024/04/04 10:55:33;;;;;;;7.33;3.40;;;;;;;;;;7346588;19;20343;-42
2024/04/04 10:57:58;;;;;;;7.03;3.60;;;;;;;;;;7324901;19;20296;-43
2024/04/04 11:00:28;;;;;;;8.60;3.60;;;;;;;;;;7345925;19;20317;-44
2024/04/04 11:02:54;;;;;;;9.60;3.80;;;;;;;;;;7323982;19;20282;-44
2024/04/04 11:05:19;;;;;;;8.65;3.40;;;;;;;;;;7345863;19;20317;-43
2024/04/04 11:07:48;;;;;;;6.60;3.90;;;;;;;;;;7323251;19;21220;-42
2024/04/04 11:10:14;;;;;;;10.52;4.03;;;;;;;;;;7345003;19;20324;-44
2024/04/04 11:12:39;;;;;;;10.33;4.30;;;;;;;;;;7322835;19;20321;-41
2024/04/04 11:15:05;;;;;;;8.87;4.20;;;;;;;;;;7345964;19;20352;-46
2024/04/04 11:17:34;;;;;;;8.20;4.40;;;;;;;;;;7344420;19;20371;-44
2024/04/04 11:20:04;;;;;;;11.73;4.20;;;;;;;;;;7325328;19;20301;-43
2024/04/04 11:22:31;;;;;;;9.82;4.65;;;;;;;;;;7344488;19;20353;-44
2024/04/04 11:24:56;;;;;;;9.18;4.28;;;;;;;;;;7323196;19;20658;-47
2024/04/04 11:27:22;;;;;;;7.40;4.57;;;;;;;;;;7344423;19;20411;-43
2024/04/04 11:29:47;;;;;;;9.43;4.10;;;;;;;;;;7322956;19;20317;-45
2024/04/04 11:32:12;;;;;;;6.83;4.50;;;;;;;;;;7343616;19;20320;-44
2024/04/04 11:34:38;;;;;;;7.70;4.03;;;;;;;;;;7322919;19;20387;-44
2024/04/04 11:37:04;;;;;;;7.20;4.67;;;;;;;;;;7344072;19;20399;-45
2024/04/04 11:39:29;;;;;;;7.70;4.10;;;;;;;;;;7344950;19;20325;-45
2024/04/04 11:41:54;;;;;;;6.17;4.00;;;;;;;;;;7323277;19;20309;-43
2024/04/04 11:44:20;;;;;;;11.73;4.27;;;;;;;;;;7341091;19;20870;-45
2024/04/04 11:46:45;;;;;;;8.73;4.50;;;;;;;;;;7323174;19;20324;-44
2024/04/04 11:49:16;;;;;;;9.50;4.90;;;;;;;;;;7342837;19;20881;-45
2024/04/04 11:51:42;;;;;;;10.07;5.13;;;;;;;;;;7322703;19;20332;-42
2024/04/04 11:54:07;;;;;;;5.87;4.90;;;;;;;;;;7343866;19;20313;-46
2024/04/04 11:56:32;;;;;;;5.15;3.83;;;;;;;;;;7339047;19;20320;-40
2024/04/04 11:58:58;;;;;;;6.67;3.70;;;;;;;;;;7331618;19;20682;-42
2024/04/04 12:01:23;;;;;;;7.57;4.07;;;;;;;;;;7344449;19;20329;-47
2024/04/04 12:03:48;;;;;;;9.10;4.10;;;;;;;;;;7321765;19;20324;-45
2024/04/04 12:06:14;;;;;;;5.55;3.40;;;;;;;;;;7344455;19;20420;-44
2024/04/04 12:08:39;;;;;;;8.07;3.73;;;;;;;;;;7322123;19;20313;-41
2024/04/04 12:11:08;;;;;;;5.95;3.60;;;;;;;;;;7344856;19;20293;-43
2024/04/04 12:13:33;;;;;;;6.18;3.50;;;;;;;;;;7326218;19;20357;-44
2024/04/04 12:15:59;;;;;;;8.47;4.23;;;;;;;;;;7341973;19;20300;-41
2024/04/04 12:21:14;;;;;;;7.20;3.55;;;;;;;;;;7323734;19;20946;-46
2024/04/04 12:23:41;;;;;;;4.78;3.42;;;;;;;;;;7320616;19;20336;-43
2024/04/04 12:26:07;;;;;;;7.35;3.60;;;;;;;;;;7343655;19;20300;-44
2024/04/04 12:28:33;;;;;;;6.10;3.57;;;;;;;;;;7339644;19;20343;-39
2024/04/04 12:30:58;;;;;;;5.20;3.30;;;;;;;;;;7331426;19;20299;-42
2024/04/04 12:33:23;;;;;;;4.70;3.33;;;;;;;;;;7342730;19;20825;-43
2024/04/04 12:35:53;;;;;;;3.83;3.00;;;;;;;;;;7321370;19;20412;-42
2024/04/04 12:38:19;;;;;;;5.97;3.67;;;;;;;;;;7342363;19;20316;-42
2024/04/04 12:40:44;;;;;;;7.80;4.40;;;;;;;;;;7321622;19;20321;-40
2024/04/04 12:43:10;;;;;;;5.22;3.95;;;;;;;;;;7343586;19;20317;-42
2024/04/04 12:45:35;;;;;;;7.57;4.53;;;;;;;;;;7318998;19;20336;-43
2024/04/04 12:48:01;;;;;;;25.60;12.18;;;;;;;;;;7343949;19;20686;-48
2024/04/04 12:50:26;;;;;;;15.97;8.63;;;;;;;;;;7349843;19;20393;-42
2024/04/04 12:52:53;;;;;;;14.02;6.63;;;;;;;;;;7325494;19;20341;-43
2024/04/04 12:55:21;;;;;;;10.23;5.20;;;;;;;;;;7350393;19;20317;-45
2024/04/04 12:57:47;;;;;;;13.52;6.07;;;;;;;;;;7328030;19;20337;-44
2024/04/04 13:00:12;;;;;;;11.80;6.40;;;;;;;;;;7350049;19;20320;-44
2024/04/04 13:02:38;;;;;;;3.17;2.30;;;;;;;;;;7327537;19;20328;-41
2024/04/04 13:05:05;;;;;;;23.73;9.90;;;;;;;;;;7349592;19;20297;-42
2024/04/04 13:07:30;;;;;;;12.75;6.20;;;;;;;;;;7348507;19;20332;-43
2024/04/04 13:09:56;;;;;;;9.88;5.05;;;;;;;;;;7327837;19;20329;-41
2024/04/04 13:12:21;;;;;;;10.10;5.30;;;;;;;;;;7348907;19;20703;-43
2024/04/04 13:14:48;;;;;;;4.70;2.90;;;;;;;;;;7326693;19;20327;-41
2024/04/04 13:17:13;;;;;;;7.25;3.30;;;;;;;;;;7349005;19;20385;-42
2024/04/04 13:19:39;;;;;;;7.37;3.70;;;;;;;;;;7326949;19;20329;-43
2024/04/04 13:22:05;;;;;;;8.85;4.13;;;;;;;;;;7348696;19;20368;-45
2024/04/04 13:24:30;;;;;;;8.77;4.30;;;;;;;;;;7349033;19;20876;-40
2024/04/04 13:26:56;;;;;;;4.80;2.63;;;;;;;;;;7326794;19;20307;-41
2024/04/04 13:29:21;;;;;;;21.40;8.60;;;;;;;;;;7348533;19;20321;-43
2024/04/04 13:31:47;;;;;;;3.40;2.70;;;;;;;;;;7321921;19;20339;-45
2024/04/04 13:34:12;;;;;;;8.23;4.40;;;;;;;;;;7348768;19;20691;-43
2024/04/04 13:36:38;;;;;;;15.70;7.03;;;;;;;;;;7326392;19;20333;-44
2024/04/04 13:39:05;;;;;;;9.50;4.20;;;;;;;;;;7348672;19;20293;-44
2024/04/04 13:41:30;;;;;;;7.60;3.90;;;;;;;;;;7347854;19;20422;-44
2024/04/04 13:43:56;;;;;;;8.33;4.50;;;;;;;;;;7323782;19;20779;-47
2024/04/04 13:46:21;;;;;;;19.55;9.30;;;;;;;;;;7349016;19;20416;-42
2024/04/04 13:48:47;;;;;;;8.55;4.93;;;;;;;;;;7323933;19;20321;-46
2024/04/04 13:51:12;;;;;;;9.17;4.10;;;;;;;;;;7349050;19;20321;-44
2024/04/04 13:53:38;;;;;;;8.68;4.97;;;;;;;;;;7322822;19;20340;-43
2024/04/04 13:56:03;;;;;;;6.77;3.50;;;;;;;;;;7346816;19;20321;-42
2024/04/04 13:58:29;;;;;;;3.92;2.85;;;;;;;;;;7346908;19;20883;-43
2024/04/04 14:00:54;;;;;;;7.60;5.30;;;;;;;;;;7326172;19;20320;-44
2024/04/04 14:03:20;;;;;;;4.00;3.60;;;;;;;;;;7346897;19;20329;-42
2024/04/04 14:05:45;;;;;;;4.50;3.20;;;;;;;;;;7326254;19;20392;-42
2024/04/04 14:08:10;;;;;;;4.70;3.50;;;;;;;;;;7347879;19;20901;-42
2024/04/04 14:10:36;;;;;;;5.47;3.53;;;;;;;;;;7323327;19;20332;-41
2024/04/04 14:13:01;;;;;;;6.53;3.90;;;;;;;;;;7347124;19;20367;-40
2024/04/04 14:15:26;;;;;;;4.33;3.47;;;;;;;;;;7347891;19;20449;-44
2024/04/04 14:17:52;;;;;;;6.07;4.20;;;;;;;;;;7324748;19;20361;-43
2024/04/04 14:20:17;;;;;;;7.70;4.40;;;;;;;;;;7346894;19;20329;-46
2024/04/04 14:22:44;;;;;;;4.10;3.40;;;;;;;;;;7325064;19;20420;-44
2024/04/04 14:25:09;;;;;;;4.70;4.20;;;;;;;;;;7347215;19;20320;-46